sensor_id;sensor_type;location;lat;lon;timestamp;temperature;humidity
19389;DHT22;9830;41.876;23.474;2024-01-30T00:01:38;-4.60;99.90
19389;DHT22;9830;41.876;23.474;2024-01-30T00:04:04;-4.60;99.90
19389;DHT22;9830;41.876;23.474;2024-01-30T00:06:30;-4.70;99.90
19389;DHT22;9830;41.876;23.474;2024-01-30T00:08:56;-4.70;99.90
19389;DHT22;9830;41.876;23.474;2024-01-30T00:11:22;-4.70;99.90
19389;DHT22;9830;41.876;23.474;2024-01-30T00:13:48;-4.80;99.90
19389;DHT22;9830;41.876;23.474;2024-01-30T00:16:23;-4.80;99.90
19389;DHT22;9830;41.876;23.474;2024-01-30T00:18:50;-4.80;99.90
19389;DHT22;9830;41.876;23.474;2024-01-30T00:21:16;-4.80;99.90
19389;DHT22;9830;41.876;23.474;2024-01-30T00:23:42;-4.90;99.90
19389;DHT22;9830;41.876;23.474;2024-01-30T00:26:07;-4.90;99.90
19389;DHT22;9830;41.876;23.474;2024-01-30T00:28:33;-4.90;99.90
19389;DHT22;9830;41.876;23.474;2024-01-30T00:30:59;-4.90;99.90
19389;DHT22;9830;41.876;23.474;2024-01-30T00:33:25;-5.00;99.90
19389;DHT22;9830;41.876;23.474;2024-01-30T00:35:50;-5.10;99.90
19389;DHT22;9830;41.876;23.474;2024-01-30T00:38:16;-5.00;99.90
19389;DHT22;9830;41.876;23.474;2024-01-30T00:40:42;-5.10;99.90
19389;DHT22;9830;41.876;23.474;2024-01-30T00:43:09;-5.10;99.90
19389;DHT22;9830;41.876;23.474;2024-01-30T00:45:36;-5.10;99.90
19389;DHT22;9830;41.876;23.474;2024-01-30T00:48:02;-5.10;99.90
19389;DHT22;9830;41.876;23.474;2024-01-30T00:50:27;-5.20;99.90
19389;DHT22;9830;41.876;23.474;2024-01-30T00:52:53;-5.20;99.90
19389;DHT22;9830;41.876;23.474;2024-01-30T00:55:19;-5.10;99.90
19389;DHT22;9830;41.876;23.474;2024-01-30T00:57:44;-5.20;99.90
19389;DHT22;9830;41.876;23.474;2024-01-30T01:00:12;-5.30;99.90
19389;DHT22;9830;41.876;23.474;2024-01-30T01:02:38;-5.30;99.90
19389;DHT22;9830;41.876;23.474;2024-01-30T01:05:06;-5.30;99.90
19389;DHT22;9830;41.876;23.474;2024-01-30T01:07:32;-5.30;99.90
19389;DHT22;9830;41.876;23.474;2024-01-30T01:09:58;-5.40;99.90
19389;DHT22;9830;41.876;23.474;2024-01-30T01:12:24;-5.40;99.90
19389;DHT22;9830;41.876;23.474;2024-01-30T01:14:49;-5.40;99.90
19389;DHT22;9830;41.876;23.474;2024-01-30T01:17:15;-5.50;99.90
19389;DHT22;9830;41.876;23.474;2024-01-30T01:19:41;-5.60;99.90
19389;DHT22;9830;41.876;23.474;2024-01-30T01:22:06;-5.70;99.90
19389;DHT22;9830;41.876;23.474;2024-01-30T01:24:32;-5.60;99.90
19389;DHT22;9830;41.876;23.474;2024-01-30T01:27:01;-5.70;99.90
19389;DHT22;9830;41.876;23.474;2024-01-30T01:29:29;-5.70;99.90
19389;DHT22;9830;41.876;23.474;2024-01-30T01:31:57;-5.80;99.90
19389;DHT22;9830;41.876;23.474;2024-01-30T01:34:24;-5.80;99.90
19389;DHT22;9830;41.876;23.474;2024-01-30T01:36:50;-5.80;99.90
19389;DHT22;9830;41.876;23.474;2024-01-30T01:39:17;-5.90;99.90
19389;DHT22;9830;41.876;23.474;2024-01-30T01:41:44;-6.00;99.90
19389;DHT22;9830;41.876;23.474;2024-01-30T01:44:10;-6.00;99.90
19389;DHT22;9830;41.876;23.474;2024-01-30T01:46:37;-5.90;99.90
19389;DHT22;9830;41.876;23.474;2024-01-30T01:49:04;-5.90;99.90
19389;DHT22;9830;41.876;23.474;2024-01-30T01:51:31;-5.90;99.90
19389;DHT22;9830;41.876;23.474;2024-01-30T01:53:58;-5.90;99.90
19389;DHT22;9830;41.876;23.474;2024-01-30T01:56:27;-5.90;99.90
19389;DHT22;9830;41.876;23.474;2024-01-30T01:58:55;-6.00;99.90
19389;DHT22;9830;41.876;23.474;2024-01-30T02:01:21;-5.90;99.90
19389;DHT22;9830;41.876;23.474;2024-01-30T02:03:47;-6.00;99.90
19389;DHT22;9830;41.876;23.474;2024-01-30T02:06:16;-6.00;99.90
19389;DHT22;9830;41.876;23.474;2024-01-30T02:08:43;-6.10;99.90
19389;DHT22;9830;41.876;23.474;2024-01-30T02:11:08;-6.10;99.90
19389;DHT22;9830;41.876;23.474;2024-01-30T02:13:36;-6.20;99.90
19389;DHT22;9830;41.876;23.474;2024-01-30T02:16:02;-6.20;99.90
19389;DHT22;9830;41.876;23.474;2024-01-30T02:18:27;-6.20;99.90
19389;DHT22;9830;41.876;23.474;2024-01-30T02:20:54;-6.20;99.90
19389;DHT22;9830;41.876;23.474;2024-01-30T02:23:24;-6.20;99.90
19389;DHT22;9830;41.876;23.474;2024-01-30T02:25:51;-6.20;99.90
19389;DHT22;9830;41.876;23.474;2024-01-30T02:28:19;-6.20;99.90
19389;DHT22;9830;41.876;23.474;2024-01-30T02:30:46;-6.20;99.90
19389;DHT22;9830;41.876;23.474;2024-01-30T02:33:12;-6.20;99.90
19389;DHT22;9830;41.876;23.474;2024-01-30T02:35:38;-6.20;99.90
19389;DHT22;9830;41.876;23.474;2024-01-30T02:38:04;-6.30;99.90
19389;DHT22;9830;41.876;23.474;2024-01-30T02:40:30;-6.30;99.90
19389;DHT22;9830;41.876;23.474;2024-01-30T02:42:57;-6.30;99.90
19389;DHT22;9830;41.876;23.474;2024-01-30T02:45:24;-6.40;99.90
19389;DHT22;9830;41.876;23.474;2024-01-30T02:47:52;-6.40;99.90
19389;DHT22;9830;41.876;23.474;2024-01-30T02:50:18;-6.40;99.90
19389;DHT22;9830;41.876;23.474;2024-01-30T02:52:43;-6.40;99.90
19389;DHT22;9830;41.876;23.474;2024-01-30T02:55:10;-6.40;99.90
19389;DHT22;9830;41.876;23.474;2024-01-30T02:57:36;-6.40;99.90
19389;DHT22;9830;41.876;23.474;2024-01-30T03:00:02;-6.40;99.90
19389;DHT22;9830;41.876;23.474;2024-01-30T03:02:29;-6.40;99.90
19389;DHT22;9830;41.876;23.474;2024-01-30T03:04:55;-6.40;99.90
19389;DHT22;9830;41.876;23.474;2024-01-30T03:07:21;-6.40;99.90
19389;DHT22;9830;41.876;23.474;2024-01-30T03:09:47;-6.40;99.90
19389;DHT22;9830;41.876;23.474;2024-01-30T03:12:13;-6.50;99.90
19389;DHT22;9830;41.876;23.474;2024-01-30T03:14:39;-6.50;99.90
19389;DHT22;9830;41.876;23.474;2024-01-30T03:17:05;-6.50;99.90
19389;DHT22;9830;41.876;23.474;2024-01-30T03:19:31;-6.60;99.90
19389;DHT22;9830;41.876;23.474;2024-01-30T03:21:57;-6.60;99.90
19389;DHT22;9830;41.876;23.474;2024-01-30T03:24:23;-6.60;99.90
19389;DHT22;9830;41.876;23.474;2024-01-30T03:26:48;-6.70;99.90
19389;DHT22;9830;41.876;23.474;2024-01-30T03:29:14;-6.70;99.90
19389;DHT22;9830;41.876;23.474;2024-01-30T03:31:41;-6.70;99.90
19389;DHT22;9830;41.876;23.474;2024-01-30T03:34:06;-6.70;99.90
19389;DHT22;9830;41.876;23.474;2024-01-30T03:36:32;-6.70;99.90
19389;DHT22;9830;41.876;23.474;2024-01-30T03:39:00;-6.70;99.90
19389;DHT22;9830;41.876;23.474;2024-01-30T03:41:26;-6.70;99.90
19389;DHT22;9830;41.876;23.474;2024-01-30T03:43:52;-6.70;99.90
19389;DHT22;9830;41.876;23.474;2024-01-30T03:46:18;-6.70;99.90
19389;DHT22;9830;41.876;23.474;2024-01-30T03:48:45;-6.80;99.90
19389;DHT22;9830;41.876;23.474;2024-01-30T03:51:11;-6.70;99.90
19389;DHT22;9830;41.876;23.474;2024-01-30T03:53:42;-6.80;99.90
19389;DHT22;9830;41.876;23.474;2024-01-30T03:56:08;-6.80;99.90
19389;DHT22;9830;41.876;23.474;2024-01-30T03:58:34;-6.90;99.90
19389;DHT22;9830;41.876;23.474;2024-01-30T04:01:01;-6.90;99.90
19389;DHT22;9830;41.876;23.474;2024-01-30T04:03:26;-6.90;99.90
19389;DHT22;9830;41.876;23.474;2024-01-30T04:05:53;-6.90;99.90
19389;DHT22;9830;41.876;23.474;2024-01-30T04:08:19;-6.90;99.90
19389;DHT22;9830;41.876;23.474;2024-01-30T04:10:46;-6.90;99.90
19389;DHT22;9830;41.876;23.474;2024-01-30T04:13:11;-6.90;99.90
19389;DHT22;9830;41.876;23.474;2024-01-30T04:15:37;-6.90;99.90
19389;DHT22;9830;41.876;23.474;2024-01-30T04:18:03;-6.80;99.90
19389;DHT22;9830;41.876;23.474;2024-01-30T04:20:29;-6.90;99.90
19389;DHT22;9830;41.876;23.474;2024-01-30T04:22:55;-6.80;99.90
19389;DHT22;9830;41.876;23.474;2024-01-30T04:25:21;-6.90;99.90
19389;DHT22;9830;41.876;23.474;2024-01-30T04:27:47;-6.90;99.90
19389;DHT22;9830;41.876;23.474;2024-01-30T04:30:13;-6.90;99.90
19389;DHT22;9830;41.876;23.474;2024-01-30T04:32:39;-6.90;99.90
19389;DHT22;9830;41.876;23.474;2024-01-30T04:35:04;-7.00;99.90
19389;DHT22;9830;41.876;23.474;2024-01-30T04:37:30;-7.00;99.90
19389;DHT22;9830;41.876;23.474;2024-01-30T04:39:56;-7.10;99.90
19389;DHT22;9830;41.876;23.474;2024-01-30T04:42:22;-7.10;99.90
19389;DHT22;9830;41.876;23.474;2024-01-30T04:44:48;-7.10;99.90
19389;DHT22;9830;41.876;23.474;2024-01-30T04:47:14;-7.10;99.90
19389;DHT22;9830;41.876;23.474;2024-01-30T04:49:39;-7.10;99.90
19389;DHT22;9830;41.876;23.474;2024-01-30T04:52:08;-7.10;99.90
19389;DHT22;9830;41.876;23.474;2024-01-30T04:54:35;-7.10;99.90
19389;DHT22;9830;41.876;23.474;2024-01-30T04:57:01;-7.30;99.90
19389;DHT22;9830;41.876;23.474;2024-01-30T04:59:27;-7.20;99.90
19389;DHT22;9830;41.876;23.474;2024-01-30T05:01:53;-7.20;99.90
19389;DHT22;9830;41.876;23.474;2024-01-30T05:04:18;-7.10;99.90
19389;DHT22;9830;41.876;23.474;2024-01-30T05:06:44;-7.00;99.90
19389;DHT22;9830;41.876;23.474;2024-01-30T05:09:11;-7.00;99.90
19389;DHT22;9830;41.876;23.474;2024-01-30T05:11:41;-7.10;99.90
19389;DHT22;9830;41.876;23.474;2024-01-30T05:14:07;-7.20;99.90
19389;DHT22;9830;41.876;23.474;2024-01-30T05:16:34;-7.20;99.90
19389;DHT22;9830;41.876;23.474;2024-01-30T05:19:00;-7.20;99.90
19389;DHT22;9830;41.876;23.474;2024-01-30T05:21:26;-7.30;99.90
19389;DHT22;9830;41.876;23.474;2024-01-30T05:23:51;-7.30;99.90
19389;DHT22;9830;41.876;23.474;2024-01-30T05:26:17;-7.30;99.90
19389;DHT22;9830;41.876;23.474;2024-01-30T05:28:43;-7.30;99.90
19389;DHT22;9830;41.876;23.474;2024-01-30T05:31:10;-7.30;99.90
19389;DHT22;9830;41.876;23.474;2024-01-30T05:33:36;-7.30;99.90
19389;DHT22;9830;41.876;23.474;2024-01-30T05:36:03;-7.20;99.90
19389;DHT22;9830;41.876;23.474;2024-01-30T05:38:29;-7.20;99.90
19389;DHT22;9830;41.876;23.474;2024-01-30T05:40:56;-7.20;99.90
19389;DHT22;9830;41.876;23.474;2024-01-30T05:43:24;-7.30;99.90
19389;DHT22;9830;41.876;23.474;2024-01-30T05:45:50;-7.30;99.90
19389;DHT22;9830;41.876;23.474;2024-01-30T05:48:16;-7.20;99.90
19389;DHT22;9830;41.876;23.474;2024-01-30T05:50:42;-7.30;99.90
19389;DHT22;9830;41.876;23.474;2024-01-30T05:53:07;-7.20;99.90
19389;DHT22;9830;41.876;23.474;2024-01-30T05:55:33;-7.20;99.90
19389;DHT22;9830;41.876;23.474;2024-01-30T05:57:59;-7.10;99.90
19389;DHT22;9830;41.876;23.474;2024-01-30T06:00:25;-7.00;99.90
19389;DHT22;9830;41.876;23.474;2024-01-30T06:02:50;-7.00;99.90
19389;DHT22;9830;41.876;23.474;2024-01-30T06:05:16;-6.90;99.90
19389;DHT22;9830;41.876;23.474;2024-01-30T06:07:42;-6.90;99.90
19389;DHT22;9830;41.876;23.474;2024-01-30T06:10:08;-6.80;99.90
19389;DHT22;9830;41.876;23.474;2024-01-30T06:12:34;-6.70;99.90
19389;DHT22;9830;41.876;23.474;2024-01-30T06:15:00;-6.50;99.90
19389;DHT22;9830;41.876;23.474;2024-01-30T06:17:28;-6.00;99.90
19389;DHT22;9830;41.876;23.474;2024-01-30T06:19:54;-5.00;99.90
19389;DHT22;9830;41.876;23.474;2024-01-30T06:22:22;-4.00;99.90
19389;DHT22;9830;41.876;23.474;2024-01-30T06:24:48;-3.10;99.90
19389;DHT22;9830;41.876;23.474;2024-01-30T06:27:14;-2.60;99.90
19389;DHT22;9830;41.876;23.474;2024-01-30T06:29:41;-1.20;99.90
19389;DHT22;9830;41.876;23.474;2024-01-30T06:32:08;0.50;99.90
19389;DHT22;9830;41.876;23.474;2024-01-30T06:34:33;1.20;99.90
19389;DHT22;9830;41.876;23.474;2024-01-30T06:36:59;0.80;99.90
19389;DHT22;9830;41.876;23.474;2024-01-30T06:39:25;1.20;99.90
19389;DHT22;9830;41.876;23.474;2024-01-30T06:41:51;1.90;99.90
19389;DHT22;9830;41.876;23.474;2024-01-30T06:44:17;2.40;99.50
19389;DHT22;9830;41.876;23.474;2024-01-30T06:46:52;2.50;98.30
19389;DHT22;9830;41.876;23.474;2024-01-30T06:49:17;2.70;99.90
19389;DHT22;9830;41.876;23.474;2024-01-30T06:51:43;2.60;96.70
19389;DHT22;9830;41.876;23.474;2024-01-30T06:54:09;2.50;98.30
19389;DHT22;9830;41.876;23.474;2024-01-30T06:56:34;3.90;89.70
19389;DHT22;9830;41.876;23.474;2024-01-30T06:59:01;2.60;95.20
19389;DHT22;9830;41.876;23.474;2024-01-30T07:01:30;2.40;99.90
19389;DHT22;9830;41.876;23.474;2024-01-30T07:03:56;2.80;95.30
19389;DHT22;9830;41.876;23.474;2024-01-30T07:06:24;2.50;95.60
19389;DHT22;9830;41.876;23.474;2024-01-30T07:08:50;2.60;96.80
19389;DHT22;9830;41.876;23.474;2024-01-30T07:11:20;3.70;94.40
19389;DHT22;9830;41.876;23.474;2024-01-30T07:13:47;4.40;85.00
19389;DHT22;9830;41.876;23.474;2024-01-30T07:16:14;4.80;82.00
19389;DHT22;9830;41.876;23.474;2024-01-30T07:18:40;4.40;86.80
19389;DHT22;9830;41.876;23.474;2024-01-30T07:21:06;4.90;84.20
19389;DHT22;9830;41.876;23.474;2024-01-30T07:23:32;4.80;81.10
19389;DHT22;9830;41.876;23.474;2024-01-30T07:25:59;5.90;74.20
19389;DHT22;9830;41.876;23.474;2024-01-30T07:28:25;5.80;71.90
19389;DHT22;9830;41.876;23.474;2024-01-30T07:30:51;5.00;79.60
19389;DHT22;9830;41.876;23.474;2024-01-30T07:33:16;6.60;66.10
19389;DHT22;9830;41.876;23.474;2024-01-30T07:35:43;6.60;64.60
19389;DHT22;9830;41.876;23.474;2024-01-30T07:38:09;8.80;52.80
19389;DHT22;9830;41.876;23.474;2024-01-30T07:40:35;7.60;54.60
19389;DHT22;9830;41.876;23.474;2024-01-30T07:43:00;9.50;48.60
19389;DHT22;9830;41.876;23.474;2024-01-30T07:45:26;10.00;44.90
19389;DHT22;9830;41.876;23.474;2024-01-30T07:47:53;9.60;45.80
19389;DHT22;9830;41.876;23.474;2024-01-30T07:50:18;9.50;47.60
19389;DHT22;9830;41.876;23.474;2024-01-30T07:52:44;9.80;46.40
19389;DHT22;9830;41.876;23.474;2024-01-30T07:55:10;10.60;43.20
19389;DHT22;9830;41.876;23.474;2024-01-30T07:57:38;8.50;45.80
19389;DHT22;9830;41.876;23.474;2024-01-30T08:00:05;7.40;53.10
19389;DHT22;9830;41.876;23.474;2024-01-30T08:02:32;7.00;62.00
19389;DHT22;9830;41.876;23.474;2024-01-30T08:04:58;8.40;53.80
19389;DHT22;9830;41.876;23.474;2024-01-30T08:07:24;9.00;50.20
19389;DHT22;9830;41.876;23.474;2024-01-30T08:09:50;9.20;50.60
19389;DHT22;9830;41.876;23.474;2024-01-30T08:12:16;8.80;48.80
19389;DHT22;9830;41.876;23.474;2024-01-30T08:14:43;9.30;46.40
19389;DHT22;9830;41.876;23.474;2024-01-30T08:17:08;9.30;45.20
19389;DHT22;9830;41.876;23.474;2024-01-30T08:19:34;9.20;46.10
19389;DHT22;9830;41.876;23.474;2024-01-30T08:22:00;9.30;45.40
19389;DHT22;9830;41.876;23.474;2024-01-30T08:24:25;9.50;47.30
19389;DHT22;9830;41.876;23.474;2024-01-30T08:26:51;10.30;46.40
19389;DHT22;9830;41.876;23.474;2024-01-30T08:29:17;10.30;46.00
19389;DHT22;9830;41.876;23.474;2024-01-30T08:31:42;10.10;45.20
19389;DHT22;9830;41.876;23.474;2024-01-30T08:34:09;11.20;41.30
19389;DHT22;9830;41.876;23.474;2024-01-30T08:36:36;11.90;39.00
19389;DHT22;9830;41.876;23.474;2024-01-30T08:39:02;12.70;37.30
19389;DHT22;9830;41.876;23.474;2024-01-30T08:41:28;12.90;35.00
19389;DHT22;9830;41.876;23.474;2024-01-30T08:43:54;12.50;36.30
19389;DHT22;9830;41.876;23.474;2024-01-30T08:46:20;11.20;38.10
19389;DHT22;9830;41.876;23.474;2024-01-30T08:48:46;11.40;38.40
19389;DHT22;9830;41.876;23.474;2024-01-30T08:51:13;11.60;37.30
19389;DHT22;9830;41.876;23.474;2024-01-30T08:53:40;11.80;39.90
19389;DHT22;9830;41.876;23.474;2024-01-30T08:56:06;10.10;39.30
19389;DHT22;9830;41.876;23.474;2024-01-30T08:58:32;8.70;40.40
19389;DHT22;9830;41.876;23.474;2024-01-30T09:00:58;8.90;39.70
19389;DHT22;9830;41.876;23.474;2024-01-30T09:03:24;8.00;43.40
19389;DHT22;9830;41.876;23.474;2024-01-30T09:05:50;9.20;43.30
19389;DHT22;9830;41.876;23.474;2024-01-30T09:08:16;10.10;41.30
19389;DHT22;9830;41.876;23.474;2024-01-30T09:10:41;9.90;40.90
19389;DHT22;9830;41.876;23.474;2024-01-30T09:13:07;12.30;36.40
19389;DHT22;9830;41.876;23.474;2024-01-30T09:15:33;13.00;35.60
19389;DHT22;9830;41.876;23.474;2024-01-30T09:17:58;12.90;34.90
19389;DHT22;9830;41.876;23.474;2024-01-30T09:20:24;12.70;35.60
19389;DHT22;9830;41.876;23.474;2024-01-30T09:22:50;12.30;36.30
19389;DHT22;9830;41.876;23.474;2024-01-30T09:25:15;11.20;37.40
19389;DHT22;9830;41.876;23.474;2024-01-30T09:27:41;12.30;36.30
19389;DHT22;9830;41.876;23.474;2024-01-30T09:30:07;12.90;34.40
19389;DHT22;9830;41.876;23.474;2024-01-30T09:32:33;12.70;33.70
19389;DHT22;9830;41.876;23.474;2024-01-30T09:34:59;12.20;34.70
19389;DHT22;9830;41.876;23.474;2024-01-30T09:37:24;12.10;35.70
19389;DHT22;9830;41.876;23.474;2024-01-30T09:39:50;13.60;32.90
19389;DHT22;9830;41.876;23.474;2024-01-30T09:44:51;13.20;32.70
19389;DHT22;9830;41.876;23.474;2024-01-30T09:47:17;13.20;32.10
19389;DHT22;9830;41.876;23.474;2024-01-30T09:49:44;13.00;31.70
19389;DHT22;9830;41.876;23.474;2024-01-30T09:52:10;11.80;34.30
19389;DHT22;9830;41.876;23.474;2024-01-30T09:54:36;10.50;35.80
19389;DHT22;9830;41.876;23.474;2024-01-30T09:57:03;11.70;35.30
19389;DHT22;9830;41.876;23.474;2024-01-30T09:59:29;11.10;34.90
19389;DHT22;9830;41.876;23.474;2024-01-30T10:01:55;10.80;36.20
19389;DHT22;9830;41.876;23.474;2024-01-30T10:04:22;10.50;36.90
19389;DHT22;9830;41.876;23.474;2024-01-30T10:06:47;11.60;35.50
19389;DHT22;9830;41.876;23.474;2024-01-30T10:09:13;12.20;33.90
19389;DHT22;9830;41.876;23.474;2024-01-30T10:11:39;12.50;33.50
19389;DHT22;9830;41.876;23.474;2024-01-30T10:14:05;12.30;33.20
19389;DHT22;9830;41.876;23.474;2024-01-30T10:16:30;12.20;33.00
19389;DHT22;9830;41.876;23.474;2024-01-30T10:18:56;12.10;34.30
19389;DHT22;9830;41.876;23.474;2024-01-30T10:21:22;11.00;35.90
19389;DHT22;9830;41.876;23.474;2024-01-30T10:23:47;11.30;35.90
19389;DHT22;9830;41.876;23.474;2024-01-30T10:26:16;12.00;34.80
19389;DHT22;9830;41.876;23.474;2024-01-30T10:28:43;11.70;34.90
19389;DHT22;9830;41.876;23.474;2024-01-30T10:31:08;11.50;34.40
19389;DHT22;9830;41.876;23.474;2024-01-30T10:33:34;11.70;34.20
19389;DHT22;9830;41.876;23.474;2024-01-30T10:36:01;10.70;35.80
19389;DHT22;9830;41.876;23.474;2024-01-30T10:38:31;11.10;35.70
19389;DHT22;9830;41.876;23.474;2024-01-30T10:40:59;11.00;35.90
19389;DHT22;9830;41.876;23.474;2024-01-30T10:43:33;10.20;37.70
19389;DHT22;9830;41.876;23.474;2024-01-30T10:46:19;10.70;36.40
19389;DHT22;9830;41.876;23.474;2024-01-30T10:48:51;10.40;37.60
19389;DHT22;9830;41.876;23.474;2024-01-30T10:51:22;9.50;37.30
19389;DHT22;9830;41.876;23.474;2024-01-30T10:53:49;8.90;39.00
19389;DHT22;9830;41.876;23.474;2024-01-30T10:56:16;9.10;40.00
19389;DHT22;9830;41.876;23.474;2024-01-30T10:58:42;8.50;40.10
19389;DHT22;9830;41.876;23.474;2024-01-30T11:01:09;9.00;39.10
19389;DHT22;9830;41.876;23.474;2024-01-30T11:03:35;9.00;40.20
19389;DHT22;9830;41.876;23.474;2024-01-30T11:06:02;8.60;42.10
19389;DHT22;9830;41.876;23.474;2024-01-30T11:08:28;7.90;42.70
19389;DHT22;9830;41.876;23.474;2024-01-30T11:10:58;7.40;44.40
19389;DHT22;9830;41.876;23.474;2024-01-30T11:13:28;6.10;48.40
19389;DHT22;9830;41.876;23.474;2024-01-30T11:15:54;5.70;50.60
19389;DHT22;9830;41.876;23.474;2024-01-30T11:18:29;5.40;52.40
19389;DHT22;9830;41.876;23.474;2024-01-30T11:20:59;5.40;52.60
19389;DHT22;9830;41.876;23.474;2024-01-30T11:23:27;5.30;52.00
19389;DHT22;9830;41.876;23.474;2024-01-30T11:25:54;5.60;53.40
19389;DHT22;9830;41.876;23.474;2024-01-30T11:28:21;5.70;53.10
19389;DHT22;9830;41.876;23.474;2024-01-30T11:30:47;5.70;53.90
19389;DHT22;9830;41.876;23.474;2024-01-30T11:33:29;5.60;55.50
19389;DHT22;9830;41.876;23.474;2024-01-30T11:35:57;5.70;55.20
19389;DHT22;9830;41.876;23.474;2024-01-30T11:38:25;5.60;53.70
19389;DHT22;9830;41.876;23.474;2024-01-30T11:40:51;5.60;54.90
19389;DHT22;9830;41.876;23.474;2024-01-30T11:43:19;5.20;54.10
19389;DHT22;9830;41.876;23.474;2024-01-30T11:45:44;5.20;55.20
19389;DHT22;9830;41.876;23.474;2024-01-30T11:48:12;5.10;56.20
19389;DHT22;9830;41.876;23.474;2024-01-30T11:50:38;5.10;56.80
19389;DHT22;9830;41.876;23.474;2024-01-30T11:53:05;5.20;55.10
19389;DHT22;9830;41.876;23.474;2024-01-30T11:55:31;5.10;56.40
19389;DHT22;9830;41.876;23.474;2024-01-30T11:57:57;4.90;56.60
19389;DHT22;9830;41.876;23.474;2024-01-30T12:00:23;5.00;56.10
19389;DHT22;9830;41.876;23.474;2024-01-30T12:02:50;5.20;56.40
19389;DHT22;9830;41.876;23.474;2024-01-30T12:05:16;5.40;56.40
19389;DHT22;9830;41.876;23.474;2024-01-30T12:07:45;5.40;55.20
19389;DHT22;9830;41.876;23.474;2024-01-30T12:10:14;5.50;54.40
19389;DHT22;9830;41.876;23.474;2024-01-30T12:12:42;5.30;55.30
19389;DHT22;9830;41.876;23.474;2024-01-30T12:15:08;5.60;55.90
19389;DHT22;9830;41.876;23.474;2024-01-30T12:17:35;5.60;52.70
19389;DHT22;9830;41.876;23.474;2024-01-30T12:22:40;5.50;53.70
19389;DHT22;9830;41.876;23.474;2024-01-30T12:25:11;5.40;54.20
19389;DHT22;9830;41.876;23.474;2024-01-30T12:27:37;5.60;52.40
19389;DHT22;9830;41.876;23.474;2024-01-30T12:30:07;5.50;51.40
19389;DHT22;9830;41.876;23.474;2024-01-30T12:32:40;5.50;54.10
19389;DHT22;9830;41.876;23.474;2024-01-30T12:35:18;5.30;55.40
19389;DHT22;9830;41.876;23.474;2024-01-30T12:37:45;5.50;59.60
19389;DHT22;9830;41.876;23.474;2024-01-30T12:40:12;5.50;57.80
19389;DHT22;9830;41.876;23.474;2024-01-30T12:42:43;5.80;56.30
19389;DHT22;9830;41.876;23.474;2024-01-30T12:45:09;5.70;57.40
19389;DHT22;9830;41.876;23.474;2024-01-30T12:47:35;5.90;59.30
19389;DHT22;9830;41.876;23.474;2024-01-30T12:50:01;6.00;55.10
19389;DHT22;9830;41.876;23.474;2024-01-30T12:52:27;5.60;56.80
19389;DHT22;9830;41.876;23.474;2024-01-30T12:54:53;5.50;58.30
19389;DHT22;9830;41.876;23.474;2024-01-30T12:57:18;5.60;53.00
19389;DHT22;9830;41.876;23.474;2024-01-30T12:59:45;5.60;55.80
19389;DHT22;9830;41.876;23.474;2024-01-30T13:02:12;5.70;57.00
19389;DHT22;9830;41.876;23.474;2024-01-30T13:04:38;5.70;58.60
19389;DHT22;9830;41.876;23.474;2024-01-30T13:07:04;6.00;55.70
19389;DHT22;9830;41.876;23.474;2024-01-30T13:09:30;5.50;56.40
19389;DHT22;9830;41.876;23.474;2024-01-30T13:11:57;5.20;60.00
19389;DHT22;9830;41.876;23.474;2024-01-30T13:14:24;5.30;58.60
19389;DHT22;9830;41.876;23.474;2024-01-30T13:16:49;5.20;58.00
19389;DHT22;9830;41.876;23.474;2024-01-30T13:19:15;5.30;59.60
19389;DHT22;9830;41.876;23.474;2024-01-30T13:21:41;5.10;59.10
19389;DHT22;9830;41.876;23.474;2024-01-30T13:24:07;4.80;59.40
19389;DHT22;9830;41.876;23.474;2024-01-30T13:26:32;4.70;56.40
19389;DHT22;9830;41.876;23.474;2024-01-30T13:28:58;4.70;58.50
19389;DHT22;9830;41.876;23.474;2024-01-30T13:31:24;4.70;56.40
19389;DHT22;9830;41.876;23.474;2024-01-30T13:33:50;4.50;57.60
19389;DHT22;9830;41.876;23.474;2024-01-30T13:36:16;4.30;57.10
19389;DHT22;9830;41.876;23.474;2024-01-30T13:38:42;4.40;58.10
19389;DHT22;9830;41.876;23.474;2024-01-30T13:41:09;4.40;57.80
19389;DHT22;9830;41.876;23.474;2024-01-30T13:43:36;4.30;61.10
19389;DHT22;9830;41.876;23.474;2024-01-30T13:46:01;4.20;60.40
19389;DHT22;9830;41.876;23.474;2024-01-30T13:48:27;4.10;61.20
19389;DHT22;9830;41.876;23.474;2024-01-30T13:50:53;4.00;60.30
19389;DHT22;9830;41.876;23.474;2024-01-30T13:53:19;4.00;60.00
19389;DHT22;9830;41.876;23.474;2024-01-30T13:55:45;4.00;61.20
19389;DHT22;9830;41.876;23.474;2024-01-30T13:58:11;3.90;61.60
19389;DHT22;9830;41.876;23.474;2024-01-30T14:00:36;3.80;62.00
19389;DHT22;9830;41.876;23.474;2024-01-30T14:03:02;3.70;64.30
19389;DHT22;9830;41.876;23.474;2024-01-30T14:05:28;3.70;65.20
19389;DHT22;9830;41.876;23.474;2024-01-30T14:07:55;3.80;65.50
19389;DHT22;9830;41.876;23.474;2024-01-30T14:10:21;3.60;62.80
19389;DHT22;9830;41.876;23.474;2024-01-30T14:12:47;3.50;64.80
19389;DHT22;9830;41.876;23.474;2024-01-30T14:15:16;3.40;65.20
19389;DHT22;9830;41.876;23.474;2024-01-30T14:17:45;3.40;64.50
19389;DHT22;9830;41.876;23.474;2024-01-30T14:20:14;3.40;65.10
19389;DHT22;9830;41.876;23.474;2024-01-30T14:22:40;3.40;65.10
19389;DHT22;9830;41.876;23.474;2024-01-30T14:25:06;3.30;66.70
19389;DHT22;9830;41.876;23.474;2024-01-30T14:27:32;3.20;65.70
19389;DHT22;9830;41.876;23.474;2024-01-30T14:29:58;3.20;65.60
19389;DHT22;9830;41.876;23.474;2024-01-30T14:32:24;3.20;66.20
19389;DHT22;9830;41.876;23.474;2024-01-30T14:34:51;3.20;63.30
19389;DHT22;9830;41.876;23.474;2024-01-30T14:37:18;3.20;65.80
19389;DHT22;9830;41.876;23.474;2024-01-30T14:39:44;3.20;66.80
19389;DHT22;9830;41.876;23.474;2024-01-30T14:42:10;3.10;65.50
19389;DHT22;9830;41.876;23.474;2024-01-30T14:44:36;3.10;69.20
19389;DHT22;9830;41.876;23.474;2024-01-30T14:47:02;3.00;69.30
19389;DHT22;9830;41.876;23.474;2024-01-30T14:49:28;2.90;68.70
19389;DHT22;9830;41.876;23.474;2024-01-30T14:51:54;2.80;72.90
19389;DHT22;9830;41.876;23.474;2024-01-30T14:54:19;2.80;77.70
19389;DHT22;9830;41.876;23.474;2024-01-30T14:56:46;2.60;71.40
19389;DHT22;9830;41.876;23.474;2024-01-30T14:59:12;2.40;74.90
19389;DHT22;9830;41.876;23.474;2024-01-30T15:01:37;2.20;80.20
19389;DHT22;9830;41.876;23.474;2024-01-30T15:04:03;2.10;80.50
19389;DHT22;9830;41.876;23.474;2024-01-30T15:06:29;1.90;84.50
19389;DHT22;9830;41.876;23.474;2024-01-30T15:08:55;1.70;82.70
19389;DHT22;9830;41.876;23.474;2024-01-30T15:11:21;1.60;80.30
19389;DHT22;9830;41.876;23.474;2024-01-30T15:13:47;1.50;85.80
19389;DHT22;9830;41.876;23.474;2024-01-30T15:16:12;1.40;88.40
19389;DHT22;9830;41.876;23.474;2024-01-30T15:18:38;1.30;90.80
19389;DHT22;9830;41.876;23.474;2024-01-30T15:21:04;1.10;95.10
19389;DHT22;9830;41.876;23.474;2024-01-30T15:23:30;1.00;94.80
19389;DHT22;9830;41.876;23.474;2024-01-30T15:25:55;0.90;97.80
19389;DHT22;9830;41.876;23.474;2024-01-30T15:28:37;0.80;96.20
19389;DHT22;9830;41.876;23.474;2024-01-30T15:31:04;0.70;95.30
19389;DHT22;9830;41.876;23.474;2024-01-30T15:33:30;0.70;94.90
19389;DHT22;9830;41.876;23.474;2024-01-30T15:35:56;0.60;96.00
19389;DHT22;9830;41.876;23.474;2024-01-30T15:38:22;0.60;97.10